Main page
METAR-TAF:

METAR-TAF

Airports :

MoD Boscombe Down

Boscombe Down, England

latitude: 51-10N, longitude: 001-45W, elevation: 124 m

Current weather observation

The report was made 1 hour and 8 minutes ago, at 17:50 UTC
Wind 11 kt from the South
Temperature 11°C
Humidity 71%
Pressure 995 hPa
Visibility 10 km or more

METAR: EGDM 241750Z AUTO 17011KT 9999 FEW023/// SCT050/// 11/06 Q0995

Time: 19:58 (18:58 UTC)

Forecast

The report was made 5 hours and 28 minutes ago, at 13:30 UTC
Forecast valid from 24 at 15 UTC to 24 at 18 UTC
Wind 12 kt from the South
Visibility 10 km or more
Scattered clouds at a height of 2500 ft
Temporary
from 24 at 15 UTC to 24 at 18 UTC
Visibility: 6000 m
Broken clouds at a height of 1800 ft
rain showers
Probability 30% :
Temporary
from 24 at 15 UTC to 24 at 18 UTC
Visibility: 4000 m
Broken clouds at a height of 1200 ft, Towering cumulus.
heavy rain showers

TAF: EGDM 241330Z 2415/2418 19012KT 9999 SCT025 TEMPO 2415/2418 6000 SHRA BKN018 PROB30 TEMPO 2415/2418 4000 +SHRA BKN012TCU

Weather observations and forecasts of more than 4000 airports (METAR and TAF reports).

The available stations are represented by yellow and red dots on the map.

Hover mouse over dot to see the name of the station.

Then click to see weather observations and forecasts.

To change the map : click on the green buttons with a black cross to zoom in, on the green button with a dash to zoom out, or on the green arrows for adjacent maps.


METAR-TAF: